Aviation Digital Data Service (ADDS)

Output produced by METARs form (0107 UTC 16 October 2018)
found at http://www.aviationweather.gov/metar/data/
 
KPAE 160053Z 31004KT 10SM CLR 14/06 A3031 RMK AO2 SLP265 T01390056
KPAE 152320Z 1600/1624 VRB04KT P6SM FEW250 
     FM161500 33006KT P6SM FEW250
       
KAWO 160056Z AUTO 29007KT 10SM CLR 14/07 A3030 RMK AO2 SLP266 T01440067
KBFI 160053Z 31005KT 10SM SCT250 16/06 A3029 RMK AO2 SLP255 T01610061
KBFI 152320Z 1600/1624 33005KT P6SM SCT250 
     FM160400 00000KT P6SM SKC 
     FM161800 32005KT P6SM FEW250
       
KRNT 160053Z 31008KT 10SM CLR 17/08 A3028 RMK AO2 SLP258 T01720078
KSEA 160053Z 31004KT 10SM FEW250 16/07 A3029 RMK AO2 SLP265 T01610067
KSEA 152320Z 1600/1706 VRB04KT P6SM SCT250 
     FM160600 01004KT P6SM FEW250